Laredo International Airport
KLRD : now visible

Airfield :











YOU CAN JOIN US ON...

 
LOGIN :

Register | Disclaimer

   EN    FR    IT 

 









Legend :    VFR   Marginal VFR   IFR   Intensive IFR   Very Intensive IFR
Visi :
Ceiling :
>= 8 km
>= 3000ft
5 to 8 km
1000 to 3000 ft
1500m to 5 km
500 to 1000 ft
800 to 1500m
200 to 500 ft
< 800m
< 200 ft
Symbols :   Thunderstorms  Fog  Heavy snow  Heavy precipitations  Wind > 20 kt






- Airport Elevation : 508 ft
- IATA code : LRD


KLRD - Laredo International

CURRENT METAR :
  • 091724Z VRB04KT 9SM SCT010 22/18 A2983 RMK AO2

EXPIRED METARs :
  • 091656Z 18003KT 8SM OVC008 20/17 A2985 RMK AO2 SLP107 T02000172
  • 091556Z 00000KT 6SM BR OVC006 19/17 A2987 RMK AO2 SLP112 T01890172
  • 091456Z 33003KT 5SM BR OVC004 18/17 A2986 RMK AO2 SLP110 T01780167 51019

TAF KLRD
Valid from the 09 at 16:00 until the 10 at 12:00 UTC


091557Z 0916/1012 16004KT 6SM BR OVC006
FM091800 15007KT P6SM SCT250
FM100900 35020G30KT P6SM BKN015



MET'MAP, your aeronautical weather chart ! - Copyright ORBIFLY December 2007 - Disclaimer

ORBIFLY MET'MAP TEAM :

Programming & Development : Alexandra Zaïnal
Concept & original design : Baudouin d'Aumeries
Assistance for programming : Marc-Olivier Méhu
Technical & hardware support : Manuel Goepfert

Contact : metmap@orbifly.com




SOURCES & CREDITS :

   NOAA       Earth
Advisory